createdAt,value
2018-11-27T00:00:31.658Z,3.20
2018-11-27T00:03:04.949Z,3.20
2018-11-27T00:05:33.739Z,3.30
2018-11-27T00:10:30.118Z,3.30
2018-11-27T00:12:57.926Z,3.30
2018-11-27T00:15:25.690Z,3.30
2018-11-27T00:17:53.484Z,3.30
2018-11-27T00:20:23.069Z,3.30
2018-11-27T00:22:50.842Z,3.30
2018-11-27T00:25:18.886Z,3.30
2018-11-27T00:27:46.645Z,3.30
2018-11-27T00:30:15.981Z,3.30
2018-11-27T00:32:43.783Z,3.30
2018-11-27T00:37:39.747Z,3.30
2018-11-27T00:40:14.903Z,3.30
2018-11-27T00:42:42.692Z,3.30
2018-11-27T00:45:11.614Z,3.30
2018-11-27T00:47:39.474Z,3.30
2018-11-27T00:50:11.421Z,3.30
2018-11-27T00:52:39.381Z,3.40
2018-11-27T00:55:08.871Z,3.40
2018-11-27T00:57:36.654Z,3.40
2018-11-27T01:00:10.446Z,3.40
2018-11-27T01:02:40.192Z,3.40
2018-11-27T01:05:09.790Z,3.50
2018-11-27T01:07:37.529Z,3.50
2018-11-27T01:10:12.024Z,3.50
2018-11-27T01:12:39.849Z,3.50
2018-11-27T01:17:35.976Z,3.50
2018-11-27T01:20:06.590Z,5.40
2018-11-27T01:22:34.289Z,3.40
2018-11-27T01:25:02.117Z,3.50
2018-11-27T01:27:29.920Z,3.40
2018-11-27T01:29:57.647Z,3.50
2018-11-27T01:32:25.355Z,3.50
2018-11-27T01:37:20.755Z,3.40
2018-11-27T01:39:48.476Z,3.40
2018-11-27T01:42:16.183Z,3.50
2018-11-27T01:44:43.923Z,3.50
2018-11-27T01:47:13.765Z,3.50
2018-11-27T01:49:41.514Z,3.40
2018-11-27T01:54:36.958Z,3.40
2018-11-27T01:59:32.868Z,3.40
2018-11-27T02:02:00.677Z,3.30
2018-11-27T02:04:28.385Z,3.30
2018-11-27T02:06:56.126Z,3.30
2018-11-27T02:09:24.116Z,3.20
2018-11-27T02:11:51.834Z,3.20
2018-11-27T02:14:19.557Z,3.20
2018-11-27T02:16:47.221Z,3.20
2018-11-27T02:19:15.035Z,3.20
2018-11-27T02:24:10.650Z,3.10
2018-11-27T02:26:38.432Z,3.10
2018-11-27T02:31:33.718Z,3.00
2018-11-27T02:34:01.466Z,3.00
2018-11-27T02:36:29.217Z,3.10
2018-11-27T02:38:56.918Z,3.10
2018-11-27T02:41:24.623Z,3.10
2018-11-27T02:43:52.351Z,3.10
2018-11-27T02:46:20.195Z,3.10
2018-11-27T02:53:43.166Z,3.10
2018-11-27T03:01:06.139Z,3.00
2018-11-27T03:03:33.850Z,3.00
2018-11-27T03:06:01.598Z,3.10
2018-11-27T03:10:58.978Z,3.00
2018-11-27T03:13:26.784Z,3.00
2018-11-27T03:15:54.471Z,3.00
2018-11-27T03:23:18.398Z,3.00
2018-11-27T03:25:46.114Z,3.00
2018-11-27T03:28:14.553Z,3.00
2018-11-27T03:30:41.621Z,3.00
2018-11-27T03:33:09.329Z,3.10
2018-11-27T03:35:37.019Z,3.10
2018-11-27T03:38:05.115Z,3.10
2018-11-27T03:40:32.900Z,3.10
2018-11-27T03:43:00.614Z,3.20
2018-11-27T03:45:28.323Z,3.30
2018-11-27T03:47:56.012Z,3.30
2018-11-27T03:50:27.944Z,3.30
2018-11-27T03:52:57.471Z,3.40
2018-11-27T03:57:53.172Z,3.40
2018-11-27T04:00:25.747Z,3.40
2018-11-27T04:05:23.789Z,3.50
2018-11-27T04:07:51.601Z,3.50
2018-11-27T04:10:19.653Z,3.50
2018-11-27T04:12:47.347Z,3.50
2018-11-27T04:17:42.758Z,3.50
2018-11-27T04:20:11.295Z,3.50
2018-11-27T04:22:39.461Z,3.60
2018-11-27T04:27:38.416Z,3.50
2018-11-27T04:32:36.717Z,3.50
2018-11-27T04:35:04.945Z,3.60
2018-11-27T04:37:32.625Z,3.60
2018-11-27T04:40:00.407Z,3.70
2018-11-27T04:42:28.184Z,3.60
2018-11-27T04:44:55.982Z,3.60
2018-11-27T04:47:23.735Z,3.60
2018-11-27T04:52:19.036Z,3.60
2018-11-27T04:57:14.386Z,3.60
2018-11-27T04:59:42.175Z,4.30
2018-11-27T05:02:09.943Z,3.60
2018-11-27T05:04:37.631Z,3.70
2018-11-27T05:07:05.499Z,3.60
2018-11-27T05:12:00.942Z,3.70
2018-11-27T05:14:28.694Z,3.70
2018-11-27T05:16:56.418Z,3.60
2018-11-27T05:19:24.110Z,3.70
2018-11-27T05:21:51.860Z,3.60
2018-11-27T05:26:47.193Z,3.70
2018-11-27T05:29:14.932Z,3.70
2018-11-27T05:31:42.914Z,3.70
2018-11-27T05:34:10.604Z,3.60
2018-11-27T05:36:38.403Z,3.70
2018-11-27T05:39:08.177Z,3.70
2018-11-27T05:41:36.138Z,3.70
2018-11-27T05:46:32.314Z,3.70
2018-11-27T05:48:59.965Z,3.70
2018-11-27T05:51:27.681Z,3.70
2018-11-27T05:56:23.079Z,3.80
2018-11-27T05:58:53.011Z,3.80
2018-11-27T06:01:20.836Z,3.70
2018-11-27T06:03:48.573Z,3.70
2018-11-27T06:06:16.419Z,3.70
2018-11-27T06:11:11.889Z,3.70
2018-11-27T06:16:07.313Z,3.80
2018-11-27T06:23:30.397Z,3.80
2018-11-27T06:25:58.185Z,3.80
2018-11-27T06:28:25.967Z,3.80
2018-11-27T06:30:54.635Z,3.80
2018-11-27T06:33:22.375Z,3.80
2018-11-27T06:38:17.810Z,3.80
2018-11-27T06:40:47.696Z,3.80
2018-11-27T06:43:15.451Z,3.80
2018-11-27T06:53:07.042Z,3.80
2018-11-27T06:55:34.895Z,3.80
2018-11-27T06:58:02.781Z,3.80
2018-11-27T07:02:58.595Z,3.90
2018-11-27T07:05:26.366Z,3.90
2018-11-27T07:07:54.147Z,3.90
2018-11-27T07:10:25.180Z,3.90
2018-11-27T07:12:54.509Z,3.90
2018-11-27T07:17:50.431Z,3.90
2018-11-27T07:20:18.282Z,3.90
2018-11-27T07:25:15.675Z,4.00
2018-11-27T07:27:48.373Z,4.00
2018-11-27T07:30:18.154Z,4.00
2018-11-27T07:32:45.947Z,4.00
2018-11-27T07:35:14.399Z,4.00
2018-11-27T07:40:14.112Z,4.00
2018-11-27T07:42:42.173Z,4.00
2018-11-27T07:45:13.965Z,4.00
2018-11-27T07:47:41.736Z,4.10
2018-11-27T07:50:10.357Z,4.10
2018-11-27T07:52:38.138Z,4.20
2018-11-27T07:55:08.190Z,4.20
2018-11-27T07:57:35.880Z,4.20
2018-11-27T08:00:05.110Z,4.30
2018-11-27T08:05:00.444Z,4.40
2018-11-27T08:09:55.796Z,4.50
2018-11-27T08:12:23.566Z,4.60
2018-11-27T08:14:51.369Z,4.60
2018-11-27T08:17:19.114Z,4.70
2018-11-27T08:19:46.860Z,4.70
2018-11-27T08:22:14.532Z,4.80
2018-11-27T08:27:09.965Z,4.80
2018-11-27T08:29:37.794Z,4.80
2018-11-27T08:32:05.606Z,4.90
2018-11-27T08:34:34.496Z,4.90
2018-11-27T08:37:02.308Z,4.90
2018-11-27T08:39:30.048Z,5.00
2018-11-27T08:41:57.809Z,5.10
2018-11-27T08:46:54.943Z,5.00
2018-11-27T08:49:22.802Z,5.10
2018-11-27T08:54:18.352Z,5.10
2018-11-27T08:56:46.119Z,5.10
2018-11-27T08:59:13.985Z,5.20
2018-11-27T09:01:41.778Z,5.20
2018-11-27T09:06:37.098Z,5.20
2018-11-27T09:09:08.252Z,5.20
2018-11-27T09:11:36.136Z,5.20
2018-11-27T09:14:03.893Z,5.20
2018-11-27T09:16:31.649Z,5.30
2018-11-27T09:18:59.418Z,5.30
2018-11-27T09:21:27.223Z,5.40
2018-11-27T09:23:56.815Z,5.40
2018-11-27T09:28:52.877Z,5.40
2018-11-27T09:31:20.788Z,5.30
2018-11-27T09:33:48.544Z,5.30
2018-11-27T09:36:16.349Z,5.30
2018-11-27T09:41:11.656Z,5.40
2018-11-27T09:48:34.598Z,5.50
2018-11-27T09:51:02.282Z,5.60
2018-11-27T09:53:29.957Z,5.80
2018-11-27T09:58:25.371Z,6.00
2018-11-27T10:00:53.088Z,6.20
2018-11-27T10:03:20.785Z,6.10
2018-11-27T10:08:16.236Z,6.30
2018-11-27T10:10:46.167Z,6.30
2018-11-27T10:15:41.566Z,6.40
2018-11-27T10:18:09.333Z,6.50
2018-11-27T10:20:38.373Z,6.50
2018-11-27T10:25:35.354Z,6.40
2018-11-27T10:28:03.092Z,6.40
2018-11-27T10:30:30.791Z,6.50
2018-11-27T10:35:35.017Z,6.70
2018-11-27T10:38:02.815Z,6.80
2018-11-27T10:40:30.595Z,6.90
2018-11-27T10:42:58.387Z,6.90
2018-11-27T10:45:26.159Z,6.90
2018-11-27T10:47:54.828Z,6.90
2018-11-27T10:50:22.717Z,6.90
2018-11-27T10:52:54.987Z,6.80
2018-11-27T10:55:23.645Z,6.90
2018-11-27T11:00:26.610Z,6.80
2018-11-27T11:03:02.136Z,6.80
2018-11-27T11:07:58.814Z,6.80
2018-11-27T11:10:26.554Z,6.70
2018-11-27T11:15:22.271Z,6.60
2018-11-27T11:17:50.249Z,6.80
2018-11-27T11:22:46.271Z,6.90
2018-11-27T11:25:16.379Z,7.00
2018-11-27T11:27:45.071Z,7.00
2018-11-27T11:30:15.987Z,7.10
2018-11-27T11:32:43.806Z,7.00
2018-11-27T11:35:11.913Z,7.10
2018-11-27T11:37:40.049Z,7.10
2018-11-27T11:40:19.497Z,7.20
2018-11-27T11:42:48.208Z,7.10
2018-11-27T11:45:16.033Z,7.10
2018-11-27T11:47:43.813Z,7.10
2018-11-27T11:50:14.560Z,7.20
2018-11-27T11:52:45.509Z,7.20
2018-11-27T11:55:19.859Z,7.30
2018-11-27T12:05:13.567Z,7.10
2018-11-27T12:07:41.389Z,7.20
2018-11-27T12:10:10.991Z,7.10
2018-11-27T12:12:38.872Z,7.10
2018-11-27T12:15:12.504Z,7.00
2018-11-27T12:17:40.930Z,7.00
2018-11-27T12:22:37.129Z,7.00
2018-11-27T12:25:06.930Z,7.00
2018-11-27T12:27:34.783Z,6.90
2018-11-27T12:30:02.595Z,6.90
2018-11-27T12:32:30.440Z,6.80
2018-11-27T12:34:58.229Z,6.80
2018-11-27T12:39:54.355Z,6.80
2018-11-27T12:42:22.217Z,6.80
2018-11-27T12:44:50.091Z,6.70
2018-11-27T12:47:17.957Z,6.60
2018-11-27T12:49:45.751Z,6.50
2018-11-27T12:52:13.581Z,6.50
2018-11-27T12:54:41.480Z,6.50
2018-11-27T12:57:09.243Z,6.50
2018-11-27T12:59:37.062Z,6.50
2018-11-27T13:04:32.781Z,6.50
2018-11-27T13:07:00.645Z,6.60
2018-11-27T13:09:28.478Z,6.60
2018-11-27T13:11:56.246Z,6.60
2018-11-27T13:19:21.540Z,6.50
2018-11-27T13:21:49.496Z,6.50
2018-11-27T13:26:44.821Z,6.50
2018-11-27T13:29:12.553Z,6.50
2018-11-27T13:31:40.244Z,6.50
2018-11-27T13:34:10.057Z,6.40
2018-11-27T13:36:37.925Z,6.40
2018-11-27T13:39:16.963Z,6.40
2018-11-27T13:41:44.685Z,6.40
2018-11-27T13:44:12.436Z,6.50
2018-11-27T13:46:40.123Z,6.40
2018-11-27T13:49:07.840Z,6.50
2018-11-27T13:51:35.561Z,6.40
2018-11-27T13:58:58.532Z,6.40
2018-11-27T14:01:26.315Z,6.50
2018-11-27T14:08:50.371Z,6.60
2018-11-27T14:13:45.829Z,6.60
2018-11-27T14:18:41.205Z,6.50
2018-11-27T14:21:08.899Z,6.50
2018-11-27T14:28:32.062Z,6.50
2018-11-27T14:30:59.832Z,6.50
2018-11-27T14:33:27.535Z,6.50
2018-11-27T14:35:55.271Z,6.40
2018-11-27T14:38:23.039Z,6.40
2018-11-27T14:40:50.820Z,6.30
2018-11-27T14:43:18.546Z,6.20
2018-11-27T14:48:15.118Z,6.10
2018-11-27T14:50:42.862Z,6.10
2018-11-27T14:53:10.593Z,6.10
2018-11-27T14:55:38.306Z,6.10
2018-11-27T14:58:06.413Z,6.10
2018-11-27T15:00:34.231Z,6.10
2018-11-27T15:03:01.920Z,6.10
2018-11-27T15:05:32.928Z,6.00
2018-11-27T15:08:00.948Z,6.00
2018-11-27T15:10:28.774Z,5.90
2018-11-27T15:12:58.054Z,5.90
2018-11-27T15:15:25.762Z,5.90
2018-11-27T15:17:53.556Z,5.90
2018-11-27T15:20:21.990Z,5.80
2018-11-27T15:22:50.134Z,5.80
2018-11-27T15:27:45.952Z,5.80
2018-11-27T15:30:17.825Z,5.80
2018-11-27T15:32:45.569Z,5.80
2018-11-27T15:37:41.188Z,5.70
2018-11-27T15:42:39.318Z,5.60
2018-11-27T15:47:35.854Z,5.60
2018-11-27T15:50:04.330Z,5.60
2018-11-27T15:52:32.062Z,5.60
2018-11-27T15:54:59.887Z,5.60
2018-11-27T15:57:27.598Z,5.60
2018-11-27T15:59:55.337Z,5.60
2018-11-27T16:02:23.163Z,5.60
2018-11-27T16:07:18.603Z,5.50
2018-11-27T16:09:46.520Z,5.50
2018-11-27T16:12:14.625Z,5.40
2018-11-27T16:14:42.503Z,5.40
2018-11-27T16:17:10.258Z,5.40
2018-11-27T16:19:38.001Z,5.30
2018-11-27T16:22:05.847Z,5.20
2018-11-27T16:24:33.733Z,5.00
2018-11-27T16:27:01.538Z,4.90
2018-11-27T16:29:29.345Z,4.80
2018-11-27T16:34:24.931Z,4.50
2018-11-27T16:36:52.807Z,4.40
2018-11-27T16:39:20.645Z,4.20
2018-11-27T16:41:48.440Z,4.10
2018-11-27T16:44:16.415Z,3.90
2018-11-27T16:46:44.276Z,3.90
2018-11-27T16:51:39.729Z,3.70
2018-11-27T16:54:07.578Z,3.70
2018-11-27T16:56:35.377Z,3.60
2018-11-27T16:59:03.110Z,3.60
2018-11-27T17:03:58.702Z,3.40
2018-11-27T17:08:54.057Z,3.30
2018-11-27T17:11:21.835Z,3.30
2018-11-27T17:13:49.702Z,3.20
2018-11-27T17:16:17.624Z,3.10
2018-11-27T17:18:45.411Z,3.00
2018-11-27T17:21:13.155Z,2.90
2018-11-27T17:23:41.544Z,2.80
2018-11-27T17:26:09.440Z,2.80
2018-11-27T17:28:37.308Z,2.70
2018-11-27T17:31:13.271Z,2.60
2018-11-27T17:33:48.122Z,2.50
2018-11-27T17:36:15.884Z,2.50
2018-11-27T17:38:43.617Z,2.50
2018-11-27T17:43:39.539Z,2.30
2018-11-27T17:46:07.517Z,2.20
2018-11-27T17:51:02.999Z,2.10
2018-11-27T17:53:30.760Z,1.90
2018-11-27T17:58:26.310Z,1.80
2018-11-27T18:00:54.145Z,1.90
2018-11-27T18:03:21.852Z,1.90
2018-11-27T18:05:49.599Z,1.80
2018-11-27T18:08:17.341Z,1.80
2018-11-27T18:10:45.162Z,1.70
2018-11-27T18:13:12.880Z,1.60
2018-11-27T18:15:40.623Z,1.50
2018-11-27T18:18:08.436Z,1.50
2018-11-27T18:23:03.856Z,1.50
2018-11-27T18:25:31.545Z,1.40
2018-11-27T18:27:59.367Z,1.50
2018-11-27T18:30:27.490Z,1.40
2018-11-27T18:32:55.293Z,1.40
2018-11-27T18:35:23.826Z,1.40
2018-11-27T18:37:52.086Z,1.50
2018-11-27T18:40:20.173Z,1.50
2018-11-27T18:42:48.058Z,1.60
2018-11-27T18:45:19.751Z,1.70
2018-11-27T18:47:47.526Z,1.70
2018-11-27T18:50:15.377Z,1.70
2018-11-27T18:52:43.578Z,1.70
2018-11-27T18:55:18.514Z,1.70
2018-11-27T18:57:47.190Z,1.60
2018-11-27T19:00:22.040Z,1.60
2018-11-27T19:02:49.916Z,1.60
2018-11-27T19:05:17.690Z,1.50
2018-11-27T19:07:45.484Z,1.50
2018-11-27T19:10:17.160Z,1.50
2018-11-27T19:15:16.376Z,1.60
2018-11-27T19:17:45.426Z,1.60
2018-11-27T19:20:13.315Z,1.60
2018-11-27T19:22:41.151Z,1.50
2018-11-27T19:30:23.088Z,1.40
2018-11-27T19:32:50.836Z,1.30
2018-11-27T19:35:25.011Z,1.30
2018-11-27T19:37:48.646Z,1.20
2018-11-27T19:40:18.019Z,1.20
2018-11-27T19:42:45.843Z,1.10
2018-11-27T19:45:15.920Z,1.10
2018-11-27T19:47:43.698Z,1.00
2018-11-27T19:52:39.981Z,0.90
2018-11-27T19:55:09.568Z,0.90
2018-11-27T19:57:37.264Z,0.80
2018-11-27T20:00:16.190Z,0.80
2018-11-27T20:05:14.172Z,0.70
2018-11-27T20:07:42.035Z,0.70
2018-11-27T20:10:11.250Z,0.60
2018-11-27T20:12:39.089Z,0.50
2018-11-27T20:15:11.259Z,0.50
2018-11-27T20:22:35.640Z,0.60
2018-11-27T20:25:03.671Z,0.60
2018-11-27T20:29:59.139Z,0.70
2018-11-27T20:32:26.862Z,0.70
2018-11-27T20:34:54.671Z,0.70
2018-11-27T20:37:22.383Z,0.70
2018-11-27T20:39:50.187Z,0.70
2018-11-27T20:47:14.934Z,0.80
2018-11-27T20:49:42.964Z,0.80
2018-11-27T20:52:10.735Z,0.80
2018-11-27T20:54:38.457Z,0.70
2018-11-27T20:57:06.289Z,0.80
2018-11-27T20:59:34.121Z,0.90
2018-11-27T21:02:01.978Z,1.00
2018-11-27T21:06:57.452Z,1.10
2018-11-27T21:09:25.251Z,1.10
2018-11-27T21:14:20.641Z,1.10
2018-11-27T21:16:48.378Z,1.10
2018-11-27T21:19:16.220Z,1.10
2018-11-27T21:21:44.000Z,1.10
2018-11-27T21:24:11.756Z,1.10
2018-11-27T21:29:07.261Z,1.20
2018-11-27T21:31:34.939Z,1.20
2018-11-27T21:34:03.052Z,1.30
2018-11-27T21:36:30.895Z,1.30
2018-11-27T21:41:26.644Z,1.30
2018-11-27T21:43:54.382Z,1.30
2018-11-27T21:46:22.070Z,1.40
2018-11-27T21:48:49.794Z,1.40
2018-11-27T21:51:17.459Z,1.40
2018-11-27T21:53:45.174Z,1.40
2018-11-27T21:56:12.891Z,1.40
2018-11-27T21:58:40.628Z,1.50
2018-11-27T22:01:08.358Z,1.50
2018-11-27T22:03:36.114Z,1.50
2018-11-27T22:08:31.684Z,1.50
2018-11-27T22:13:28.861Z,1.50
2018-11-27T22:23:19.657Z,1.70
2018-11-27T22:25:47.462Z,1.70
2018-11-27T22:28:15.459Z,1.70
2018-11-27T22:30:43.264Z,1.70
2018-11-27T22:33:11.100Z,1.70
2018-11-27T22:38:07.259Z,1.80
2018-11-27T22:40:34.956Z,1.70
2018-11-27T22:43:02.718Z,1.70
2018-11-27T22:45:32.134Z,1.70
2018-11-27T22:47:59.836Z,1.70
2018-11-27T22:52:56.700Z,1.80
2018-11-27T22:55:24.600Z,1.80
2018-11-27T22:57:52.384Z,1.80
2018-11-27T23:00:32.725Z,1.80
2018-11-27T23:03:00.479Z,1.80
2018-11-27T23:05:28.237Z,1.80
2018-11-27T23:07:55.999Z,1.80
2018-11-27T23:10:24.389Z,1.80
2018-11-27T23:15:20.769Z,1.80
2018-11-27T23:17:48.510Z,1.80
2018-11-27T23:20:17.282Z,1.90
2018-11-27T23:22:45.092Z,1.90
2018-11-27T23:25:13.867Z,1.80
2018-11-27T23:30:17.422Z,1.80
2018-11-27T23:32:45.255Z,1.80
2018-11-27T23:35:12.993Z,1.80
2018-11-27T23:40:09.640Z,1.80
2018-11-27T23:42:37.683Z,1.80
2018-11-27T23:45:08.121Z,1.80
2018-11-27T23:54:58.760Z,1.80
2018-11-27T23:57:26.514Z,1.80
2018-11-27T23:59:54.252Z,1.80
